Latest Coastal Weather Observations for Melbourne (Olympic Park)

IDV60701

Issued at 9:41 am EDT Tuesday 23 December 2014 (issued every 10 minutes, with the page automatically refreshed every 10 minutes)

About coastal observations | Map of coastal stations | Coastal observations for VIC | Marine services | Other Formats
Station Details ID: 086338 Name: MELBOURNE (OLYMPIC PARK) Lat: -37.83 Lon: 144.98 Height: 7.53 m
Data from the previous 72 hours. | See also: Recent months at Melbourne (Olympic Park)
Date/Time
EDT
Temp

°C
Wind Pressure Rain
since 9am
mm
Weather Cloud Vis
km
Sea
Height
m
Swell
Dir
 
Speed
knots
Gust
knots
hPa Trend Height
m
Period
s
Dir
23/09:30am 24.4 NW 6 9 1008.0 - 0.0 - - - - - - -
23/09:00am 23.4 NNW 4 6 1008.0 - 1.0 - - - - - - -
23/08:30am 22.8 NNW 4 7 1007.7 - 1.0 - - - - - - -
23/08:00am 22.2 N 5 7 1007.5 - 1.0 - - - - - - -
23/07:30am 22.2 N 4 8 1007.1 - 1.0 - - - - - - -
23/07:00am 21.8 N 5 8 1007.0 - 1.0 - - - - - - -
23/06:30am 21.4 N 3 5 1007.1 - 1.0 - - - - - - -
23/06:00am 21.4 NNE 3 5 1006.9 - 1.0 - - - - - - -
23/05:30am 20.8 NNW 1 6 1007.1 - 1.0 - - - - - - -
23/05:00am 20.5 S 1 3 1006.8 - 1.0 - - - - - - -
23/04:30am 20.7 CALM 0 0 1006.5 - 1.0 - - - - - - -
23/04:00am 20.7 CALM 0 0 1006.2 - 1.0 - - - - - - -
23/03:30am 20.7 CALM 0 0 1005.9 - 1.0 - - - - - - -
23/03:00am 21.1 CALM 0 0 1005.9 - 1.0 - - - - - - -
23/02:30am 21.3 CALM 0 0 1006.1 - 1.0 - - - - - - -
23/02:00am 21.4 W 1 4 1006.4 - 1.0 - - - - - - -
23/01:30am 21.7 N 2 5 1006.8 - 0.8 - - - - - - -
23/01:00am 22.1 CALM 0 0 1006.5 - 0.2 - - - - - - -
23/12:30am 23.2 NNE 5 9 1006.4 - 0.0 - - - - - - -
23/12:00am 23.4 NNE 3 5 1006.4 - 0.0 - - - - - - -
 
Date/Time
EDT
Temp

°C
Wind Pressure Rain
since 9am
mm
Weather Cloud Vis
km
Sea
Height
m
Swell
Dir
 
Speed
knots
Gust
knots
hPa Trend Height
m
Period
s
Dir
22/11:30pm 23.2 NNE 5 8 1006.8 - 0.0 - - - - - - -
22/11:00pm 22.9 E 3 6 1006.6 - 0.0 - - - - - - -
22/10:30pm 23.0 SE 3 5 1007.1 - 0.0 - - - - - - -
22/10:00pm 23.1 SSW 3 6 1007.5 - 0.0 - - - - - - -
22/09:30pm 22.2 WSW 1 5 1007.6 - 0.0 - - - - - - -
22/09:00pm 22.2 SSW 1 3 1006.8 - 0.0 - - - - - - -
22/08:30pm 22.3 W 2 5 1006.7 - 0.0 - - - - - - -
22/08:00pm 22.2 S 1 4 1006.7 - 0.0 - - - - - - -
22/07:30pm 22.2 WSW 1 4 1006.8 - 0.0 - - - - - - -
22/07:00pm 22.1 SSW 4 8 1006.6 - 0.0 - - - - - - -
22/06:30pm 22.1 SSW 5 9 1006.4 - 0.0 - - - - - - -
22/06:00pm 22.2 SW 5 8 1007.0 - 0.0 - - - - - - -
22/05:30pm 22.1 SSW 5 9 1007.1 - 0.0 - - - - - - -
22/05:00pm 22.2 SW 6 9 1007.7 - 0.0 - - - - - - -
22/04:30pm 22.2 SSW 7 10 1008.1 - 0.0 - - - - - - -
22/04:00pm 23.1 SW 5 7 1008.4 - 0.0 - - - - - - -
22/03:30pm 23.0 SSW 5 8 1008.8 - 0.0 - - - - - - -
22/03:00pm 22.5 SSW 5 9 1009.6 - 0.0 - - - - - - -
22/02:30pm 23.0 SSW 5 9 1010.3 - 0.0 - - - - - - -
22/02:00pm 21.6 S 7 11 1010.9 - 0.0 - - - - - - -
22/01:30pm 21.4 SSW 7 12 1011.3 - 0.0 - - - - - - -
22/01:00pm 21.6 S 6 11 1011.8 - 0.0 - - - - - - -
22/12:30pm 21.8 SSW 8 13 1012.1 - 0.0 - - - - - - -
22/12:00pm 21.6 S 6 11 1012.0 - 0.0 - - - - - - -
22/11:30am 21.4 SW 7 11 1012.3 - 0.0 - - - - - - -
22/11:00am 21.0 SSW 6 10 1012.5 - 0.0 - - - - - - -
22/10:30am 20.7 S 7 12 1012.8 - 0.0 - - - - - - -
22/10:00am 20.7 SSW 6 9 1013.0 - 0.0 - - - - - - -
22/09:30am 21.0 E 1 4 1013.1 - 0.0 - - - - - - -
22/09:00am 19.8 N 2 5 1013.1 - 0.0 - - - - - - -
22/08:30am 19.1 CALM 0 3 1013.1 - 0.0 - - - - - - -
22/08:00am 18.2 S 2 4 1013.2 - 0.0 - - - - - - -
22/07:30am 17.9 E 3 5 1013.2 - 0.0 - - - - - - -
22/07:00am 17.9 ESE 3 5 1012.9 - 0.0 - - - - - - -
22/06:30am 17.8 CALM 0 2 1012.9 - 0.0 - - - - - - -
22/06:00am 17.6 CALM 0 3 1012.6 - 0.0 - - - - - - -
22/05:30am 17.6 CALM 0 0 1012.5 - 0.0 - - - - - - -
22/05:00am 17.4 CALM 0 0 1012.4 - 0.0 - - - - - - -
22/04:30am 17.7 CALM 0 0 1012.6 - 0.0 - - - - - - -
22/04:00am 18.0 CALM 0 0 1012.5 - 0.0 - - - - - - -
22/03:30am 18.0 CALM 0 2 1012.8 - 0.0 - - - - - - -
22/03:00am 18.0 CALM 0 3 1012.8 - 0.0 - - - - - - -
22/02:30am 18.0 SSW 2 6 1013.1 - 0.0 - - - - - - -
22/02:00am 18.3 SSW 3 6 1013.2 - 0.0 - - - - - - -
22/01:30am 18.3 SW 3 6 1013.7 - 0.0 - - - - - - -
22/01:00am 18.6 SSW 4 9 1014.1 - 0.0 - - - - - - -
22/12:30am 19.0 SW 5 9 1014.2 - 0.0 - - - - - - -
22/12:00am 19.4 SW 4 8 1014.2 - 0.0 - - - - - - -
 
Date/Time
EDT
Temp

°C
Wind Pressure Rain
since 9am
mm
Weather Cloud Vis
km
Sea
Height
m
Swell
Dir
 
Speed
knots
Gust
knots
hPa Trend Height
m
Period
s
Dir
21/11:30pm 19.7 SW 5 7 1014.1 - 0.0 - - - - - - -
21/11:00pm 19.9 SSW 7 13 1014.1 - 0.0 - - - - - - -
21/10:30pm 21.8 SSW 6 12 1013.9 - 0.0 - - - - - - -
21/10:00pm 22.2 SSW 6 9 1013.5 - 0.0 - - - - - - -
21/09:30pm 22.6 SW 5 9 1012.8 - 0.0 - - - - - - -
21/09:00pm 25.8 SSW 5 8 1012.2 - 0.0 - - - - - - -
21/08:30pm 26.6 SSE 5 9 1011.6 - 0.0 - - - - - - -
21/08:00pm 27.1 S 6 9 1011.3 - 0.0 - - - - - - -
21/07:30pm 27.9 SSW 5 10 1010.8 - 0.0 - - - - - - -
21/07:00pm 28.3 S 7 11 1010.6 - 0.0 - - - - - - -
21/06:30pm 30.1 SSE 7 11 1010.1 - 0.0 - - - - - - -
21/06:00pm 27.4 SSW 6 11 1010.2 - 0.0 - - - - - - -
21/05:30pm 27.7 SSW 9 19 1010.5 - 0.0 - - - - - - -
21/05:00pm 32.1 SW 6 11 1010.3 - 0.0 - - - - - - -
21/04:30pm 32.0 SSW 7 10 1010.6 - 0.0 - - - - - - -
21/04:00pm 32.5 SSW 4 8 1010.8 - 0.0 - - - - - - -
21/03:30pm 32.6 SSW 5 9 1010.9 - 0.0 - - - - - - -
21/03:00pm 32.7 WNW 3 6 1011.5 - 0.0 - - - - - - -
21/02:30pm 31.5 SSW 4 7 1011.9 - 0.0 - - - - - - -
21/02:00pm 30.5 S 5 8 1012.3 - 0.0 - - - - - - -
21/01:30pm 28.6 SW 6 9 1012.8 - 0.0 - - - - - - -
21/01:00pm 28.5 SSW 5 6 1013.1 - 0.0 - - - - - - -
21/12:30pm 28.4 SSW 4 6 1013.3 - 0.0 - - - - - - -
21/12:00pm 26.8 S 4 6 1013.7 - 0.0 - - - - - - -
21/11:30am 25.5 SSW 5 7 1013.7 - 0.0 - - - - - - -
21/11:00am 25.4 SW 3 5 1013.8 - 0.0 - - - - - - -
21/10:30am 24.0 NE 1 4 1013.9 - 0.0 - - - - - - -
21/10:00am 21.9 N 2 4 1014.2 - 0.0 - - - - - - -
21/09:30am 20.0 NE 4 7 1014.7 - 0.0 - - - - - - -
21/09:00am 18.2 NNE 7 9 1014.7 - 0.0 - - - - - - -
21/08:30am 17.0 NNE 7 9 1014.9 - 0.0 - - - - - - -
21/08:00am 16.0 NNE 5 7 1014.7 - 0.0 - - - - - - -
21/07:30am 15.6 NE 3 5 1015.3 - 0.0 - - - - - - -
21/07:00am 14.6 NE 2 4 1015.3 - 0.0 - - - - - - -
21/06:30am 13.9 CALM 0 0 1015.2 - 0.0 - - - - - - -
21/06:00am 13.2 ESE 2 4 1014.8 - 0.0 - - - - - - -
21/05:30am 13.6 CALM 0 0 1014.7 - 0.0 - - - - - - -
21/05:00am 14.2 NE 4 5 1014.2 - 0.0 - - - - - - -
21/04:30am 14.3 NNE 4 5 1014.3 - 0.0 - - - - - - -
21/04:00am 14.6 NNE 3 5 1014.5 - 0.0 - - - - - - -
21/03:30am 14.3 E 1 4 1014.7 - 0.0 - - - - - - -
21/03:00am 13.7 CALM 0 0 1015.2 - 0.0 - - - - - - -
21/02:30am 14.0 CALM 0 0 1015.5 - 0.0 - - - - - - -
21/02:00am 14.1 CALM 0 0 1015.9 - 0.0 - - - - - - -
21/01:30am 14.6 CALM 0 0 1016.1 - 0.0 - - - - - - -
21/01:00am 15.0 CALM 0 0 1016.7 - 0.0 - - - - - - -
21/12:30am 15.3 S 1 4 1017.0 - 0.0 - - - - - - -
21/12:00am 15.7 CALM 0 1 1017.4 - 0.0 - - - - - - -
 
Date/Time
EDT
Temp

°C
Wind Pressure Rain
since 9am
mm
Weather Cloud Vis
km
Sea
Height
m
Swell
Dir
 
Speed
knots
Gust
knots
hPa Trend Height
m
Period
s
Dir
20/11:30pm 16.4 SSE 4 6 1017.4 - 0.0 - - - - - - -
20/11:00pm 16.7 SSE 3 8 1017.6 - 0.0 - - - - - - -
20/10:30pm 17.1 SSE 5 7 1017.8 - 0.0 - - - - - - -
20/10:00pm 17.7 SSE 5 8 1017.8 - 0.0 - - - - - - -
20/09:30pm 17.9 S 5 8 1017.5 - 0.0 - - - - - - -
20/09:00pm 18.2 S 5 7 1017.2 - 0.0 - - - - - - -
20/08:30pm 18.2 SSW 6 11 1017.2 - 0.0 - - - - - - -
20/08:00pm 18.5 SSW 7 13 1017.1 - 0.0 - - - - - - -
20/07:30pm 19.1 SSW 7 12 1017.0 - 0.0 - - - - - - -
20/07:00pm 19.6 SSW 8 14 1016.7 - 0.0 - - - - - - -
20/06:30pm 19.9 SSW 9 14 1016.6 - 0.0 - - - - - - -
20/06:00pm 20.1 SSW 9 14 1016.3 - 0.0 - - - - - - -
20/05:30pm 20.3 SSW 8 14 1016.3 - 0.0 - - - - - - -
20/05:00pm 21.0 SSW 7 13 1016.5 - 0.0 - - - - - - -
20/04:30pm 21.4 S 8 12 1016.6 - 0.0 - - - - - - -
20/04:00pm 21.3 SSW 8 11 1016.9 - 0.0 - - - - - - -
20/03:30pm 21.9 SSW 6 11 1017.2 - 0.0 - - - - - - -
20/03:00pm 21.6 SSW 5 9 1017.6 - 0.0 - - - - - - -
20/02:30pm 20.9 S 5 9 1018.0 - 0.0 - - - - - - -
20/02:00pm 20.1 SSW 7 11 1018.4 - 0.0 - - - - - - -
20/01:30pm 20.0 SSW 5 10 1018.6 - 0.0 - - - - - - -
20/01:00pm 19.8 SSW 5 10 1018.9 - 0.0 - - - - - - -
20/12:30pm 19.2 S 5 9 1019.1 - 0.0 - - - - - - -
20/12:00pm 18.4 SSW 4 7 1019.2 - 0.0 - - - - - - -
20/11:30am 17.9 SSE 5 11 1019.4 - 0.0 - - - - - - -
20/11:00am 18.0 SSW 6 9 1019.5 - 0.0 - - - - - - -
20/10:30am 17.9 S 6 10 1019.7 - 0.0 - - - - - - -
20/10:00am 18.0 SSE 5 11 1019.7 - 0.0 - - - - - - -

Other Formats:

Comma delimited format used in spreadsheet applications
http://www.bom.gov.au/fwo/IDV60701/IDV60701.95936.axf

JavaScript Object Notation format (JSON) in row-major order
http://www.bom.gov.au/fwo/IDV60701/IDV60701.95936.json